sensor_id;sensor_type;location;lat;lon;timestamp;pressure;altitude;pressure_sealevel;temperature;humidity
60974;BME280;46846;51.528;5.076;2022-12-07T00:00:41;101336.59;;;3.97;76.74
60974;BME280;46846;51.528;5.076;2022-12-07T00:03:07;101326.06;;;3.94;77.15
60974;BME280;46846;51.528;5.076;2022-12-07T00:05:32;101331.31;;;3.95;76.37
60974;BME280;46846;51.528;5.076;2022-12-07T00:07:57;101335.72;;;3.95;76.48
60974;BME280;46846;51.528;5.076;2022-12-07T00:10:23;101326.03;;;3.95;76.62
60974;BME280;46846;51.528;5.076;2022-12-07T00:12:48;101330.44;;;3.96;76.83
60974;BME280;46846;51.528;5.076;2022-12-07T00:15:13;101326.94;;;3.94;76.85
60974;BME280;46846;51.528;5.076;2022-12-07T00:17:39;101329.56;;;3.94;76.51
60974;BME280;46846;51.528;5.076;2022-12-07T00:20:05;101322.53;;;3.93;76.59
60974;BME280;46846;51.528;5.076;2022-12-07T00:22:30;101322.53;;;3.92;76.29
60974;BME280;46846;51.528;5.076;2022-12-07T00:24:56;101326.06;;;3.92;76.22
60974;BME280;46846;51.528;5.076;2022-12-07T00:27:21;101325.19;;;3.90;76.71
60974;BME280;46846;51.528;5.076;2022-12-07T00:29:46;101330.44;;;3.90;76.60
60974;BME280;46846;51.528;5.076;2022-12-07T00:32:12;101323.41;;;3.92;76.51
60974;BME280;46846;51.528;5.076;2022-12-07T00:34:37;101319.03;;;3.90;76.42
60974;BME280;46846;51.528;5.076;2022-12-07T00:37:02;101319.91;;;3.90;76.48
60974;BME280;46846;51.528;5.076;2022-12-07T00:39:28;101318.16;;;3.86;76.70
60974;BME280;46846;51.528;5.076;2022-12-07T00:41:53;101318.16;;;3.89;76.68
60974;BME280;46846;51.528;5.076;2022-12-07T00:44:18;101308.47;;;3.88;76.45
60974;BME280;46846;51.528;5.076;2022-12-07T00:46:44;101311.13;;;3.90;76.76
60974;BME280;46846;51.528;5.076;2022-12-07T00:49:10;101309.38;;;3.90;76.57
60974;BME280;46846;51.528;5.076;2022-12-07T00:51:36;101315.53;;;3.89;76.39
60974;BME280;46846;51.528;5.076;2022-12-07T00:54:01;101312.03;;;3.90;76.63
60974;BME280;46846;51.528;5.076;2022-12-07T00:56:28;101311.13;;;3.90;76.49
60974;BME280;46846;51.528;5.076;2022-12-07T00:58:59;101305.84;;;3.88;76.17
60974;BME280;46846;51.528;5.076;2022-12-07T01:01:27;101301.47;;;3.87;76.39
60974;BME280;46846;51.528;5.076;2022-12-07T01:03:53;101304.97;;;3.86;76.16
60974;BME280;46846;51.528;5.076;2022-12-07T01:06:20;101301.47;;;3.87;76.53
60974;BME280;46846;51.528;5.076;2022-12-07T01:08:46;101304.97;;;3.86;76.11
60974;BME280;46846;51.528;5.076;2022-12-07T01:11:14;101305.88;;;3.87;76.51
60974;BME280;46846;51.528;5.076;2022-12-07T01:13:40;101301.47;;;3.89;76.29
60974;BME280;46846;51.528;5.076;2022-12-07T01:16:06;101314.63;;;3.92;76.56
60974;BME280;46846;51.528;5.076;2022-12-07T01:18:34;101300.59;;;3.88;76.00
60974;BME280;46846;51.528;5.076;2022-12-07T01:21:34;101301.47;;;3.84;76.12
60974;BME280;46846;51.528;5.076;2022-12-07T01:23:53;101305.84;;;3.83;76.22
60974;BME280;46846;51.528;5.076;2022-12-07T01:26:21;101303.25;;;3.82;76.29
60974;BME280;46846;51.528;5.076;2022-12-07T01:28:47;101307.63;;;3.83;76.44
60974;BME280;46846;51.528;5.076;2022-12-07T01:31:15;101317.25;;;3.82;76.58
60974;BME280;46846;51.528;5.076;2022-12-07T01:33:41;101317.28;;;3.79;76.67
60974;BME280;46846;51.528;5.076;2022-12-07T01:36:16;101312.00;;;3.82;76.30
60974;BME280;46846;51.528;5.076;2022-12-07T01:38:42;101312.03;;;3.86;76.43
60974;BME280;46846;51.528;5.076;2022-12-07T01:41:07;101309.38;;;3.86;76.37
60974;BME280;46846;51.528;5.076;2022-12-07T01:43:34;101296.19;;;3.81;76.08
60974;BME280;46846;51.528;5.076;2022-12-07T01:45:59;101296.19;;;3.81;76.12
60974;BME280;46846;51.528;5.076;2022-12-07T01:48:36;101305.88;;;3.82;76.44
60974;BME280;46846;51.528;5.076;2022-12-07T01:51:06;101308.50;;;3.82;76.36
60974;BME280;46846;51.528;5.076;2022-12-07T01:53:35;101309.34;;;3.81;76.37
60974;BME280;46846;51.528;5.076;2022-12-07T01:56:01;101305.84;;;3.83;76.56
60974;BME280;46846;51.528;5.076;2022-12-07T01:58:28;101299.72;;;3.83;76.21
60974;BME280;46846;51.528;5.076;2022-12-07T02:00:53;101308.50;;;3.85;76.18
60974;BME280;46846;51.528;5.076;2022-12-07T02:03:25;101300.59;;;3.87;75.73
60974;BME280;46846;51.528;5.076;2022-12-07T02:05:53;101296.22;;;3.86;76.00
60974;BME280;46846;51.528;5.076;2022-12-07T02:08:19;101296.22;;;3.86;75.67
60974;BME280;46846;51.528;5.076;2022-12-07T02:10:45;101293.59;;;3.86;76.19
60974;BME280;46846;51.528;5.076;2022-12-07T02:13:20;101299.72;;;3.83;76.14
60974;BME280;46846;51.528;5.076;2022-12-07T02:32:20;101297.97;;;3.76;75.84
60974;BME280;46846;51.528;5.076;2022-12-07T02:34:51;101301.47;;;3.73;75.93
60974;BME280;46846;51.528;5.076;2022-12-07T02:39:55;101308.47;;;3.74;75.76
60974;BME280;46846;51.528;5.076;2022-12-07T02:42:30;101309.34;;;3.73;76.47
60974;BME280;46846;51.528;5.076;2022-12-07T02:44:58;101309.38;;;3.75;76.22
60974;BME280;46846;51.528;5.076;2022-12-07T02:47:26;101301.47;;;3.75;76.19
60974;BME280;46846;51.528;5.076;2022-12-07T02:49:52;101292.69;;;3.65;76.10
60974;BME280;46846;51.528;5.076;2022-12-07T02:52:18;101293.53;;;3.70;76.02
60974;BME280;46846;51.528;5.076;2022-12-07T02:54:43;101288.28;;;3.72;75.69
60974;BME280;46846;51.528;5.076;2022-12-07T03:02:55;101297.94;;;3.68;76.42
60974;BME280;46846;51.528;5.076;2022-12-07T03:10:32;101296.19;;;3.64;76.43
60974;BME280;46846;51.528;5.076;2022-12-07T03:15:35;101297.03;;;3.58;76.43
60974;BME280;46846;51.528;5.076;2022-12-07T03:18:05;101296.19;;;3.62;76.18
60974;BME280;46846;51.528;5.076;2022-12-07T03:20:32;101292.69;;;3.65;76.05
60974;BME280;46846;51.528;5.076;2022-12-07T03:23:03;101297.06;;;3.69;76.37
60974;BME280;46846;51.528;5.076;2022-12-07T03:25:29;101290.94;;;3.68;76.05
60974;BME280;46846;51.528;5.076;2022-12-07T03:28:01;101294.44;;;3.71;76.00
60974;BME280;46846;51.528;5.076;2022-12-07T03:30:38;101286.56;;;3.72;76.20
60974;BME280;46846;51.528;5.076;2022-12-07T03:33:32;101289.19;;;3.67;76.14
60974;BME280;46846;51.528;5.076;2022-12-07T03:36:10;101287.41;;;3.68;76.12
60974;BME280;46846;51.528;5.076;2022-12-07T03:38:38;101281.28;;;3.72;76.14
60974;BME280;46846;51.528;5.076;2022-12-07T03:41:10;101283.91;;;3.71;75.95
60974;BME280;46846;51.528;5.076;2022-12-07T03:43:37;101288.28;;;3.67;75.97
60974;BME280;46846;51.528;5.076;2022-12-07T03:54:16;101285.66;;;3.62;75.91
60974;BME280;46846;51.528;5.076;2022-12-07T03:56:44;101289.16;;;3.61;76.25
60974;BME280;46846;51.528;5.076;2022-12-07T03:59:11;101287.41;;;3.62;76.45
60974;BME280;46846;51.528;5.076;2022-12-07T04:01:37;101286.53;;;3.64;76.26
60974;BME280;46846;51.528;5.076;2022-12-07T04:04:03;101287.41;;;3.60;76.17
60974;BME280;46846;51.528;5.076;2022-12-07T04:06:28;101284.75;;;3.62;76.00
60974;BME280;46846;51.528;5.076;2022-12-07T04:08:54;101273.34;;;3.63;76.20
60974;BME280;46846;51.528;5.076;2022-12-07T04:11:19;101274.25;;;3.63;76.13
60974;BME280;46846;51.528;5.076;2022-12-07T04:13:44;101287.41;;;3.60;75.81
60974;BME280;46846;51.528;5.076;2022-12-07T04:16:28;101289.16;;;3.57;76.34
60974;BME280;46846;51.528;5.076;2022-12-07T04:18:54;101291.75;;;3.53;76.26
60974;BME280;46846;51.528;5.076;2022-12-07T04:21:19;101289.16;;;3.55;76.15
60974;BME280;46846;51.528;5.076;2022-12-07T04:23:44;101284.75;;;3.54;76.29
60974;BME280;46846;51.528;5.076;2022-12-07T04:26:10;101286.53;;;3.55;76.07
60974;BME280;46846;51.528;5.076;2022-12-07T04:28:35;101284.75;;;3.54;76.22
60974;BME280;46846;51.528;5.076;2022-12-07T04:31:00;101293.53;;;3.56;75.94
60974;BME280;46846;51.528;5.076;2022-12-07T04:33:26;101272.50;;;3.58;75.98
60974;BME280;46846;51.528;5.076;2022-12-07T04:35:51;101271.59;;;3.54;76.21
60974;BME280;46846;51.528;5.076;2022-12-07T04:38:17;101273.38;;;3.57;76.12
60974;BME280;46846;51.528;5.076;2022-12-07T04:40:42;101269.84;;;3.59;76.14
60974;BME280;46846;51.528;5.076;2022-12-07T04:43:07;101272.47;;;3.59;76.49
60974;BME280;46846;51.528;5.076;2022-12-07T04:45:33;101276.00;;;3.57;75.80
60974;BME280;46846;51.528;5.076;2022-12-07T04:47:58;101278.59;;;3.49;76.31
60974;BME280;46846;51.528;5.076;2022-12-07T04:50:23;101276.00;;;3.50;76.15
60974;BME280;46846;51.528;5.076;2022-12-07T04:52:49;101274.22;;;3.57;76.32
60974;BME280;46846;51.528;5.076;2022-12-07T04:55:14;101263.72;;;3.54;76.20
60974;BME280;46846;51.528;5.076;2022-12-07T04:57:39;101262.84;;;3.55;76.11
60974;BME280;46846;51.528;5.076;2022-12-07T05:00:05;101261.94;;;3.56;75.75
60974;BME280;46846;51.528;5.076;2022-12-07T05:02:31;101253.16;;;3.55;76.16
60974;BME280;46846;51.528;5.076;2022-12-07T05:04:56;101256.69;;;3.59;75.79
60974;BME280;46846;51.528;5.076;2022-12-07T05:07:21;101254.94;;;3.60;76.25
60974;BME280;46846;51.528;5.076;2022-12-07T05:09:47;101254.97;;;3.61;76.15
60974;BME280;46846;51.528;5.076;2022-12-07T05:12:12;101256.69;;;3.62;76.12
60974;BME280;46846;51.528;5.076;2022-12-07T05:14:37;101243.53;;;3.61;75.85
60974;BME280;46846;51.528;5.076;2022-12-07T05:17:03;101247.94;;;3.60;76.08
60974;BME280;46846;51.528;5.076;2022-12-07T05:19:29;101247.94;;;3.60;75.67
60974;BME280;46846;51.528;5.076;2022-12-07T05:21:54;101248.81;;;3.61;75.69
60974;BME280;46846;51.528;5.076;2022-12-07T05:24:19;101246.19;;;3.58;76.13
60974;BME280;46846;51.528;5.076;2022-12-07T05:26:45;101253.19;;;3.57;75.98
60974;BME280;46846;51.528;5.076;2022-12-07T05:29:16;101254.06;;;3.56;75.98
60974;BME280;46846;51.528;5.076;2022-12-07T05:31:42;101251.41;;;3.54;76.06
60974;BME280;46846;51.528;5.076;2022-12-07T05:34:07;101254.06;;;3.53;75.71
60974;BME280;46846;51.528;5.076;2022-12-07T05:36:33;101257.59;;;3.52;75.80
60974;BME280;46846;51.528;5.076;2022-12-07T05:38:58;101250.56;;;3.49;76.12
60974;BME280;46846;51.528;5.076;2022-12-07T05:41:24;101258.44;;;3.48;76.26
60974;BME280;46846;51.528;5.076;2022-12-07T05:44:08;101247.91;;;3.48;76.40
60974;BME280;46846;51.528;5.076;2022-12-07T05:46:33;101248.78;;;3.45;76.41
60974;BME280;46846;51.528;5.076;2022-12-07T05:48:59;101252.28;;;3.44;76.36
60974;BME280;46846;51.528;5.076;2022-12-07T05:51:24;101251.41;;;3.44;76.26
60974;BME280;46846;51.528;5.076;2022-12-07T05:53:50;101241.78;;;3.41;76.25
60974;BME280;46846;51.528;5.076;2022-12-07T05:56:15;101247.00;;;3.38;76.61
60974;BME280;46846;51.528;5.076;2022-12-07T05:58:41;101243.53;;;3.37;76.38
60974;BME280;46846;51.528;5.076;2022-12-07T06:01:25;101242.63;;;3.35;76.16
60974;BME280;46846;51.528;5.076;2022-12-07T06:03:50;101239.13;;;3.35;76.56
60974;BME280;46846;51.528;5.076;2022-12-07T06:06:15;101235.63;;;3.36;76.57
60974;BME280;46846;51.528;5.076;2022-12-07T06:08:41;101244.38;;;3.33;76.41
60974;BME280;46846;51.528;5.076;2022-12-07T06:11:06;101248.75;;;3.34;76.64
60974;BME280;46846;51.528;5.076;2022-12-07T06:13:50;101250.53;;;3.34;76.26
60974;BME280;46846;51.528;5.076;2022-12-07T06:16:15;101253.16;;;3.32;76.81
60974;BME280;46846;51.528;5.076;2022-12-07T06:18:41;101262.78;;;3.30;76.20
60974;BME280;46846;51.528;5.076;2022-12-07T06:21:06;101254.88;;;3.28;76.65
60974;BME280;46846;51.528;5.076;2022-12-07T06:23:31;101261.03;;;3.27;76.34
60974;BME280;46846;51.528;5.076;2022-12-07T06:25:57;101253.13;;;3.27;76.69
60974;BME280;46846;51.528;5.076;2022-12-07T06:28:22;101250.50;;;3.26;76.74
60974;BME280;46846;51.528;5.076;2022-12-07T06:30:47;101251.38;;;3.26;76.54
60974;BME280;46846;51.528;5.076;2022-12-07T06:33:21;101246.97;;;3.25;76.21
60974;BME280;46846;51.528;5.076;2022-12-07T06:35:46;101251.34;;;3.22;76.63
60974;BME280;46846;51.528;5.076;2022-12-07T06:38:12;101256.63;;;3.20;76.16
60974;BME280;46846;51.528;5.076;2022-12-07T06:40:37;101257.50;;;3.18;76.74
60974;BME280;46846;51.528;5.076;2022-12-07T06:43:02;101253.97;;;3.19;76.60
60974;BME280;46846;51.528;5.076;2022-12-07T06:45:28;101250.50;;;3.21;76.87
60974;BME280;46846;51.528;5.076;2022-12-07T06:47:53;101261.00;;;3.21;76.68
60974;BME280;46846;51.528;5.076;2022-12-07T06:50:18;101259.25;;;3.20;76.49
60974;BME280;46846;51.528;5.076;2022-12-07T06:52:44;101253.97;;;3.19;76.66
60974;BME280;46846;51.528;5.076;2022-12-07T06:55:09;101259.22;;;3.14;76.42
60974;BME280;46846;51.528;5.076;2022-12-07T06:57:34;101260.13;;;3.18;76.29
60974;BME280;46846;51.528;5.076;2022-12-07T07:00:00;101252.22;;;3.18;76.74
60974;BME280;46846;51.528;5.076;2022-12-07T07:02:25;101247.84;;;3.15;76.45
60974;BME280;46846;51.528;5.076;2022-12-07T07:04:51;101246.09;;;3.16;76.25
60974;BME280;46846;51.528;5.076;2022-12-07T07:07:16;101246.97;;;3.13;76.56
60974;BME280;46846;51.528;5.076;2022-12-07T07:09:41;101253.09;;;3.12;76.20
60974;BME280;46846;51.528;5.076;2022-12-07T07:12:07;101261.84;;;3.12;76.61
60974;BME280;46846;51.528;5.076;2022-12-07T07:14:32;101272.41;;;3.16;76.44
60974;BME280;46846;51.528;5.076;2022-12-07T07:16:57;101271.53;;;3.18;76.45
60974;BME280;46846;51.528;5.076;2022-12-07T07:19:23;101274.16;;;3.17;76.25
60974;BME280;46846;51.528;5.076;2022-12-07T07:21:48;101273.28;;;3.18;76.37
60974;BME280;46846;51.528;5.076;2022-12-07T07:24:13;101281.16;;;3.18;76.52
60974;BME280;46846;51.528;5.076;2022-12-07T07:26:39;101272.38;;;3.17;76.37
60974;BME280;46846;51.528;5.076;2022-12-07T07:29:04;101273.25;;;3.16;76.17
60974;BME280;46846;51.528;5.076;2022-12-07T07:31:29;101269.75;;;3.14;76.10
60974;BME280;46846;51.528;5.076;2022-12-07T07:33:55;101269.75;;;3.11;75.95
60974;BME280;46846;51.528;5.076;2022-12-07T07:36:20;101263.59;;;3.10;76.22
60974;BME280;46846;51.528;5.076;2022-12-07T07:38:46;101260.97;;;3.10;76.04
60974;BME280;46846;51.528;5.076;2022-12-07T07:41:11;101263.59;;;3.10;76.23
60974;BME280;46846;51.528;5.076;2022-12-07T07:43:36;101266.22;;;3.10;76.45
60974;BME280;46846;51.528;5.076;2022-12-07T07:46:02;101259.19;;;3.08;76.26
60974;BME280;46846;51.528;5.076;2022-12-07T07:48:27;101266.22;;;3.07;76.32
60974;BME280;46846;51.528;5.076;2022-12-07T07:50:52;101267.09;;;3.08;76.51
60974;BME280;46846;51.528;5.076;2022-12-07T07:53:18;101268.88;;;3.07;76.20
60974;BME280;46846;51.528;5.076;2022-12-07T07:55:51;101273.22;;;3.07;75.94
60974;BME280;46846;51.528;5.076;2022-12-07T07:58:17;101274.97;;;3.06;75.93
60974;BME280;46846;51.528;5.076;2022-12-07T08:00:42;101268.84;;;3.06;76.42
60974;BME280;46846;51.528;5.076;2022-12-07T08:03:08;101269.72;;;3.03;76.29
60974;BME280;46846;51.528;5.076;2022-12-07T08:05:33;101272.34;;;3.00;76.34
60974;BME280;46846;51.528;5.076;2022-12-07T08:07:58;101274.97;;;3.03;75.90
60974;BME280;46846;51.528;5.076;2022-12-07T08:10:24;101274.06;;;2.96;76.09
60974;BME280;46846;51.528;5.076;2022-12-07T08:12:49;101276.69;;;2.93;76.29
60974;BME280;46846;51.528;5.076;2022-12-07T08:15:36;101270.56;;;2.97;76.37
60974;BME280;46846;51.528;5.076;2022-12-07T08:18:02;101279.31;;;2.98;76.44
60974;BME280;46846;51.528;5.076;2022-12-07T08:20:30;101274.06;;;2.96;76.06
60974;BME280;46846;51.528;5.076;2022-12-07T08:22:55;101281.94;;;2.98;76.04
60974;BME280;46846;51.528;5.076;2022-12-07T08:25:21;101279.34;;;3.01;76.21
60974;BME280;46846;51.528;5.076;2022-12-07T08:27:49;101284.59;;;3.03;76.13
60974;BME280;46846;51.528;5.076;2022-12-07T08:30:15;101287.25;;;3.01;75.82
60974;BME280;46846;51.528;5.076;2022-12-07T08:32:41;101288.13;;;3.03;76.04
60974;BME280;46846;51.528;5.076;2022-12-07T08:35:07;101301.28;;;3.05;75.82
60974;BME280;46846;51.528;5.076;2022-12-07T08:37:33;101306.53;;;3.08;76.35
60974;BME280;46846;51.528;5.076;2022-12-07T08:39:58;101300.41;;;3.07;76.02
60974;BME280;46846;51.528;5.076;2022-12-07T08:42:23;101299.50;;;3.05;75.70
60974;BME280;46846;51.528;5.076;2022-12-07T08:44:53;101303.88;;;3.06;75.89
60974;BME280;46846;51.528;5.076;2022-12-07T08:47:18;101294.28;;;3.08;75.86
60974;BME280;46846;51.528;5.076;2022-12-07T08:49:46;101291.66;;;3.08;75.57
60974;BME280;46846;51.528;5.076;2022-12-07T08:52:15;101286.38;;;3.04;75.36
60974;BME280;46846;51.528;5.076;2022-12-07T08:54:41;101281.13;;;3.04;75.59
60974;BME280;46846;51.528;5.076;2022-12-07T08:57:08;101284.59;;;3.01;75.84
60974;BME280;46846;51.528;5.076;2022-12-07T08:59:35;101282.84;;;3.00;75.53
60974;BME280;46846;51.528;5.076;2022-12-07T09:02:04;101274.09;;;3.01;75.90
60974;BME280;46846;51.528;5.076;2022-12-07T09:04:29;101274.09;;;3.01;75.34
60974;BME280;46846;51.528;5.076;2022-12-07T09:06:55;101281.09;;;3.05;75.58
60974;BME280;46846;51.528;5.076;2022-12-07T09:09:20;101284.63;;;3.07;75.55
60974;BME280;46846;51.528;5.076;2022-12-07T09:11:46;101281.13;;;3.08;75.78
60974;BME280;46846;51.528;5.076;2022-12-07T09:14:11;101277.63;;;3.08;75.73
60974;BME280;46846;51.528;5.076;2022-12-07T09:16:37;101279.38;;;3.06;75.52
60974;BME280;46846;51.528;5.076;2022-12-07T09:19:03;101279.34;;;3.04;75.75
60974;BME280;46846;51.528;5.076;2022-12-07T09:21:28;101274.97;;;3.03;75.68
60974;BME280;46846;51.528;5.076;2022-12-07T09:23:54;101273.22;;;3.04;75.91
60974;BME280;46846;51.528;5.076;2022-12-07T09:26:19;101280.22;;;3.01;75.59
60974;BME280;46846;51.528;5.076;2022-12-07T09:28:44;101282.84;;;3.00;75.99
60974;BME280;46846;51.528;5.076;2022-12-07T09:31:10;101279.34;;;3.04;75.57
60974;BME280;46846;51.528;5.076;2022-12-07T09:33:35;101278.44;;;2.99;75.77
60974;BME280;46846;51.528;5.076;2022-12-07T09:36:01;101274.06;;;2.98;75.71
60974;BME280;46846;51.528;5.076;2022-12-07T09:38:27;101281.94;;;2.98;75.86
60974;BME280;46846;51.528;5.076;2022-12-07T09:40:55;101281.97;;;2.99;75.56
60974;BME280;46846;51.528;5.076;2022-12-07T09:43:23;101284.59;;;3.01;75.91
60974;BME280;46846;51.528;5.076;2022-12-07T09:45:51;101278.50;;;3.04;75.84
60974;BME280;46846;51.528;5.076;2022-12-07T09:48:21;101273.22;;;3.05;76.20
60974;BME280;46846;51.528;5.076;2022-12-07T09:50:48;101274.13;;;3.07;75.62
60974;BME280;46846;51.528;5.076;2022-12-07T09:53:25;101277.63;;;3.09;75.45
60974;BME280;46846;51.528;5.076;2022-12-07T09:55:51;101278.50;;;3.11;75.25
60974;BME280;46846;51.528;5.076;2022-12-07T09:58:20;101273.22;;;3.10;75.96
60974;BME280;46846;51.528;5.076;2022-12-07T10:00:46;101276.75;;;3.10;75.32
60974;BME280;46846;51.528;5.076;2022-12-07T10:03:11;101275.88;;;3.11;75.40
60974;BME280;46846;51.528;5.076;2022-12-07T10:05:47;101278.50;;;3.13;75.33
60974;BME280;46846;51.528;5.076;2022-12-07T10:08:14;101276.75;;;3.13;75.69
60974;BME280;46846;51.528;5.076;2022-12-07T10:10:41;101268.88;;;3.17;75.44
60974;BME280;46846;51.528;5.076;2022-12-07T10:13:12;101267.13;;;3.19;75.47
60974;BME280;46846;51.528;5.076;2022-12-07T10:15:49;101266.25;;;3.20;75.44
60974;BME280;46846;51.528;5.076;2022-12-07T10:18:32;101266.25;;;3.20;75.28
60974;BME280;46846;51.528;5.076;2022-12-07T10:23:28;101255.72;;;3.15;74.97
60974;BME280;46846;51.528;5.076;2022-12-07T10:25:53;101258.34;;;3.13;75.56
60974;BME280;46846;51.528;5.076;2022-12-07T10:28:20;101251.34;;;3.16;75.18
60974;BME280;46846;51.528;5.076;2022-12-07T10:30:54;101254.88;;;3.14;75.01
60974;BME280;46846;51.528;5.076;2022-12-07T10:35:53;101248.69;;;3.08;75.43
60974;BME280;46846;51.528;5.076;2022-12-07T10:38:19;101246.97;;;3.16;75.28
60974;BME280;46846;51.528;5.076;2022-12-07T10:40:44;101245.22;;;3.15;76.02
60974;BME280;46846;51.528;5.076;2022-12-07T10:48:30;101238.22;;;3.20;75.66
60974;BME280;46846;51.528;5.076;2022-12-07T10:51:17;101233.84;;;3.22;75.41
60974;BME280;46846;51.528;5.076;2022-12-07T11:10:24;101217.19;;;3.28;76.02
60974;BME280;46846;51.528;5.076;2022-12-07T11:13:22;101214.53;;;3.28;76.17
60974;BME280;46846;51.528;5.076;2022-12-07T11:18:43;101214.53;;;3.19;75.97
60974;BME280;46846;51.528;5.076;2022-12-07T11:32:09;101193.50;;;3.30;76.32
60974;BME280;46846;51.528;5.076;2022-12-07T11:34:38;101197.91;;;3.34;76.99
60974;BME280;46846;51.528;5.076;2022-12-07T11:37:11;101198.78;;;3.39;77.50
60974;BME280;46846;51.528;5.076;2022-12-07T11:39:50;101192.66;;;3.43;78.02
60974;BME280;46846;51.528;5.076;2022-12-07T11:42:23;101186.53;;;3.46;78.50
60974;BME280;46846;51.528;5.076;2022-12-07T11:44:55;101178.63;;;3.44;77.76
60974;BME280;46846;51.528;5.076;2022-12-07T11:47:47;101177.72;;;3.39;77.47
60974;BME280;46846;51.528;5.076;2022-12-07T11:56:02;101175.13;;;3.42;78.40
60974;BME280;46846;51.528;5.076;2022-12-07T12:01:16;101178.63;;;3.47;78.29
60974;BME280;46846;51.528;5.076;2022-12-07T12:03:48;101167.22;;;3.47;78.02
60974;BME280;46846;51.528;5.076;2022-12-07T12:06:14;101169.84;;;3.45;77.81
60974;BME280;46846;51.528;5.076;2022-12-07T12:19:38;101150.56;;;3.38;78.45
60974;BME280;46846;51.528;5.076;2022-12-07T12:22:14;101150.56;;;3.43;79.18
60974;BME280;46846;51.528;5.076;2022-12-07T12:24:43;101152.31;;;3.44;78.89
60974;BME280;46846;51.528;5.076;2022-12-07T12:27:18;101147.94;;;3.38;77.16
60974;BME280;46846;51.528;5.076;2022-12-07T12:29:53;101142.66;;;3.35;76.55
60974;BME280;46846;51.528;5.076;2022-12-07T12:35:20;101130.38;;;3.50;78.42
60974;BME280;46846;51.528;5.076;2022-12-07T12:37:48;101132.16;;;3.48;78.04
60974;BME280;46846;51.528;5.076;2022-12-07T12:42:45;101132.13;;;3.51;79.11
60974;BME280;46846;51.528;5.076;2022-12-07T12:45:26;101126.00;;;3.55;79.23
60974;BME280;46846;51.528;5.076;2022-12-07T12:53:00;101117.22;;;3.54;78.38
60974;BME280;46846;51.528;5.076;2022-12-07T13:00:43;101111.97;;;3.53;78.00
60974;BME280;46846;51.528;5.076;2022-12-07T13:03:22;101113.72;;;3.59;78.02
60974;BME280;46846;51.528;5.076;2022-12-07T13:08:50;101096.19;;;3.56;77.92
60974;BME280;46846;51.528;5.076;2022-12-07T13:11:28;101099.69;;;3.60;78.02
60974;BME280;46846;51.528;5.076;2022-12-07T13:16:58;101086.53;;;3.64;77.95
60974;BME280;46846;51.528;5.076;2022-12-07T13:27:37;101084.75;;;3.69;78.45
60974;BME280;46846;51.528;5.076;2022-12-07T13:30:14;101084.75;;;3.73;78.89
60974;BME280;46846;51.528;5.076;2022-12-07T13:32:40;101083.00;;;3.61;77.85
60974;BME280;46846;51.528;5.076;2022-12-07T13:35:35;101073.38;;;3.66;78.53
60974;BME280;46846;51.528;5.076;2022-12-07T13:38:05;101068.09;;;3.66;78.17
60974;BME280;46846;51.528;5.076;2022-12-07T13:40:31;101064.59;;;3.67;78.86
60974;BME280;46846;51.528;5.076;2022-12-07T13:43:04;101071.59;;;3.73;79.33
60974;BME280;46846;51.528;5.076;2022-12-07T13:45:37;101069.84;;;3.68;78.43
60974;BME280;46846;51.528;5.076;2022-12-07T13:48:28;101076.88;;;3.68;76.88
60974;BME280;46846;51.528;5.076;2022-12-07T13:50:57;101076.88;;;3.63;77.80
60974;BME280;46846;51.528;5.076;2022-12-07T13:53:23;101069.84;;;3.59;77.22
60974;BME280;46846;51.528;5.076;2022-12-07T13:55:49;101075.16;;;3.47;77.03
60974;BME280;46846;51.528;5.076;2022-12-07T13:58:14;101076.03;;;3.41;77.66
60974;BME280;46846;51.528;5.076;2022-12-07T14:00:41;101070.78;;;3.39;77.89
60974;BME280;46846;51.528;5.076;2022-12-07T14:05:40;101057.59;;;3.57;78.13
60974;BME280;46846;51.528;5.076;2022-12-07T14:08:22;101050.59;;;3.54;77.69
60974;BME280;46846;51.528;5.076;2022-12-07T14:13:38;101037.41;;;3.65;78.41
60974;BME280;46846;51.528;5.076;2022-12-07T14:16:24;101036.50;;;3.63;76.94
60974;BME280;46846;51.528;5.076;2022-12-07T14:18:54;101042.66;;;3.65;77.72
60974;BME280;46846;51.528;5.076;2022-12-07T14:21:22;101034.78;;;3.65;77.59
60974;BME280;46846;51.528;5.076;2022-12-07T14:24:15;101031.25;;;3.66;77.53
60974;BME280;46846;51.528;5.076;2022-12-07T14:26:46;101027.72;;;3.70;77.44
60974;BME280;46846;51.528;5.076;2022-12-07T14:31:53;101031.25;;;3.66;77.39
60974;BME280;46846;51.528;5.076;2022-12-07T14:34:20;101028.63;;;3.67;77.83
60974;BME280;46846;51.528;5.076;2022-12-07T14:36:46;101023.38;;;3.67;77.24
60974;BME280;46846;51.528;5.076;2022-12-07T14:39:11;101013.72;;;3.63;76.46
60974;BME280;46846;51.528;5.076;2022-12-07T14:41:36;101018.97;;;3.63;76.76
60974;BME280;46846;51.528;5.076;2022-12-07T14:44:22;101023.38;;;3.66;77.29
60974;BME280;46846;51.528;5.076;2022-12-07T14:46:49;101025.09;;;3.67;76.94
60974;BME280;46846;51.528;5.076;2022-12-07T14:49:14;101026.00;;;3.66;76.91
60974;BME280;46846;51.528;5.076;2022-12-07T14:51:42;101026.00;;;3.66;77.29
60974;BME280;46846;51.528;5.076;2022-12-07T14:54:17;101025.13;;;3.64;76.44
60974;BME280;46846;51.528;5.076;2022-12-07T14:56:44;101017.22;;;3.61;76.89
60974;BME280;46846;51.528;5.076;2022-12-07T14:59:11;101016.34;;;3.65;76.66
60974;BME280;46846;51.528;5.076;2022-12-07T15:01:37;101011.06;;;3.66;76.95
60974;BME280;46846;51.528;5.076;2022-12-07T15:04:02;101011.09;;;3.62;77.00
60974;BME280;46846;51.528;5.076;2022-12-07T15:06:28;101007.56;;;3.64;76.85
60974;BME280;46846;51.528;5.076;2022-12-07T15:08:53;101010.19;;;3.63;76.83
60974;BME280;46846;51.528;5.076;2022-12-07T15:11:20;101006.72;;;3.62;76.59
60974;BME280;46846;51.528;5.076;2022-12-07T15:13:45;101005.81;;;3.66;76.67
60974;BME280;46846;51.528;5.076;2022-12-07T15:16:29;101005.81;;;3.68;76.93
60974;BME280;46846;51.528;5.076;2022-12-07T15:18:54;101003.19;;;3.69;77.15
60974;BME280;46846;51.528;5.076;2022-12-07T15:21:20;101014.59;;;3.68;76.47
60974;BME280;46846;51.528;5.076;2022-12-07T15:23:48;101007.56;;;3.71;76.70